sensor_id;sensor_type;location;lat;lon;timestamp;pressure;altitude;pressure_sealevel;temperature;humidity
65010;BME280;51556;50.002;22.014;2023-12-20T00:01:19;98816.64;;;4.76;62.68
65010;BME280;51556;50.002;22.014;2023-12-20T00:03:44;98815.02;;;4.80;62.66
65010;BME280;51556;50.002;22.014;2023-12-20T00:06:10;98811.05;;;4.77;62.33
65010;BME280;51556;50.002;22.014;2023-12-20T00:08:35;98802.41;;;4.69;62.33
65010;BME280;51556;50.002;22.014;2023-12-20T00:11:01;98802.92;;;4.70;62.59
65010;BME280;51556;50.002;22.014;2023-12-20T00:13:26;98796.98;;;4.72;62.74
65010;BME280;51556;50.002;22.014;2023-12-20T00:15:52;98794.65;;;4.78;62.71
65010;BME280;51556;50.002;22.014;2023-12-20T00:18:18;98788.73;;;4.77;62.35
65010;BME280;51556;50.002;22.014;2023-12-20T00:20:44;98787.94;;;4.68;62.26
65010;BME280;51556;50.002;22.014;2023-12-20T00:23:09;98781.52;;;4.65;62.71
65010;BME280;51556;50.002;22.014;2023-12-20T00:25:34;98778.76;;;4.63;62.50
65010;BME280;51556;50.002;22.014;2023-12-20T00:28:00;98784.17;;;4.63;63.03
65010;BME280;51556;50.002;22.014;2023-12-20T00:30:26;98776.52;;;4.62;62.68
65010;BME280;51556;50.002;22.014;2023-12-20T00:32:51;98769.71;;;4.61;62.57
65010;BME280;51556;50.002;22.014;2023-12-20T00:35:18;98767.83;;;4.58;62.76
65010;BME280;51556;50.002;22.014;2023-12-20T00:37:43;98757.95;;;4.53;63.05
65010;BME280;51556;50.002;22.014;2023-12-20T00:40:09;98760.22;;;4.53;62.81
65010;BME280;51556;50.002;22.014;2023-12-20T00:42:35;98757.23;;;4.55;63.05
65010;BME280;51556;50.002;22.014;2023-12-20T00:45:04;98757.19;;;4.59;62.57
65010;BME280;51556;50.002;22.014;2023-12-20T00:47:30;98757.97;;;4.67;63.03
65010;BME280;51556;50.002;22.014;2023-12-20T00:49:57;98756.00;;;4.72;62.66
65010;BME280;51556;50.002;22.014;2023-12-20T00:52:23;98754.91;;;4.76;62.72
65010;BME280;51556;50.002;22.014;2023-12-20T00:54:48;98758.38;;;4.79;62.51
65010;BME280;51556;50.002;22.014;2023-12-20T00:57:14;98756.25;;;4.81;62.67
65010;BME280;51556;50.002;22.014;2023-12-20T00:59:40;98750.78;;;4.84;62.66
65010;BME280;51556;50.002;22.014;2023-12-20T01:02:05;98745.35;;;4.86;62.50
65010;BME280;51556;50.002;22.014;2023-12-20T01:04:31;98741.16;;;4.86;62.33
65010;BME280;51556;50.002;22.014;2023-12-20T01:06:56;98730.20;;;4.84;62.47
65010;BME280;51556;50.002;22.014;2023-12-20T01:09:21;98725.65;;;4.85;62.53
65010;BME280;51556;50.002;22.014;2023-12-20T01:11:54;98722.63;;;4.90;62.45
65010;BME280;51556;50.002;22.014;2023-12-20T01:14:20;98720.51;;;4.93;62.24
65010;BME280;51556;50.002;22.014;2023-12-20T01:16:45;98718.95;;;4.93;62.26
65010;BME280;51556;50.002;22.014;2023-12-20T01:19:11;98715.81;;;4.92;62.11
65010;BME280;51556;50.002;22.014;2023-12-20T01:21:36;98714.28;;;4.89;62.13
65010;BME280;51556;50.002;22.014;2023-12-20T01:24:02;98706.29;;;4.86;62.27
65010;BME280;51556;50.002;22.014;2023-12-20T01:26:27;98700.17;;;4.87;61.88
65010;BME280;51556;50.002;22.014;2023-12-20T01:28:53;98699.48;;;4.86;62.09
65010;BME280;51556;50.002;22.014;2023-12-20T01:31:18;98696.20;;;4.84;62.04
65010;BME280;51556;50.002;22.014;2023-12-20T01:33:44;98693.23;;;4.85;61.99
65010;BME280;51556;50.002;22.014;2023-12-20T01:36:09;98690.59;;;4.86;61.87
65010;BME280;51556;50.002;22.014;2023-12-20T01:38:35;98682.09;;;4.84;62.01
65010;BME280;51556;50.002;22.014;2023-12-20T01:41:00;98679.39;;;4.79;61.58
65010;BME280;51556;50.002;22.014;2023-12-20T01:43:26;98679.25;;;4.76;61.87
65010;BME280;51556;50.002;22.014;2023-12-20T01:45:51;98680.98;;;4.77;62.16
65010;BME280;51556;50.002;22.014;2023-12-20T01:48:19;98684.52;;;4.73;61.97
65010;BME280;51556;50.002;22.014;2023-12-20T01:50:45;98681.60;;;4.68;62.05
65010;BME280;51556;50.002;22.014;2023-12-20T01:53:12;98680.01;;;4.71;62.02
65010;BME280;51556;50.002;22.014;2023-12-20T01:55:39;98682.43;;;4.73;61.78
65010;BME280;51556;50.002;22.014;2023-12-20T01:58:09;98678.26;;;4.71;61.95
65010;BME280;51556;50.002;22.014;2023-12-20T02:00:36;98675.30;;;4.71;61.87
65010;BME280;51556;50.002;22.014;2023-12-20T02:03:02;98669.73;;;4.70;61.76
65010;BME280;51556;50.002;22.014;2023-12-20T02:05:30;98663.13;;;4.68;62.27
65010;BME280;51556;50.002;22.014;2023-12-20T02:07:55;98655.46;;;4.67;62.26
65010;BME280;51556;50.002;22.014;2023-12-20T02:10:21;98653.41;;;4.65;61.93
65010;BME280;51556;50.002;22.014;2023-12-20T02:12:46;98646.48;;;4.61;62.40
65010;BME280;51556;50.002;22.014;2023-12-20T02:15:12;98643.17;;;4.61;62.04
65010;BME280;51556;50.002;22.014;2023-12-20T02:17:38;98637.42;;;4.60;62.15
65010;BME280;51556;50.002;22.014;2023-12-20T02:20:05;98638.45;;;4.62;62.33
65010;BME280;51556;50.002;22.014;2023-12-20T02:22:31;98640.04;;;4.60;62.20
65010;BME280;51556;50.002;22.014;2023-12-20T02:24:57;98633.96;;;4.59;62.09
65010;BME280;51556;50.002;22.014;2023-12-20T02:27:23;98626.63;;;4.60;62.31
65010;BME280;51556;50.002;22.014;2023-12-20T02:29:49;98627.66;;;4.60;62.08
65010;BME280;51556;50.002;22.014;2023-12-20T02:32:16;98630.81;;;4.60;62.17
65010;BME280;51556;50.002;22.014;2023-12-20T02:34:42;98618.59;;;4.60;61.95
65010;BME280;51556;50.002;22.014;2023-12-20T02:37:08;98616.16;;;4.60;62.06
65010;BME280;51556;50.002;22.014;2023-12-20T02:39:33;98616.34;;;4.60;62.33
65010;BME280;51556;50.002;22.014;2023-12-20T02:41:58;98620.11;;;4.64;62.08
65010;BME280;51556;50.002;22.014;2023-12-20T02:44:24;98616.59;;;4.67;62.09
65010;BME280;51556;50.002;22.014;2023-12-20T02:46:50;98615.70;;;4.68;62.02
65010;BME280;51556;50.002;22.014;2023-12-20T02:49:15;98612.40;;;4.67;61.93
65010;BME280;51556;50.002;22.014;2023-12-20T02:51:41;98613.66;;;4.64;62.02
65010;BME280;51556;50.002;22.014;2023-12-20T02:54:06;98613.17;;;4.62;62.25
65010;BME280;51556;50.002;22.014;2023-12-20T02:56:35;98608.80;;;4.63;62.17
65010;BME280;51556;50.002;22.014;2023-12-20T02:59:00;98602.83;;;4.67;62.06
65010;BME280;51556;50.002;22.014;2023-12-20T03:01:26;98601.60;;;4.67;62.09
65010;BME280;51556;50.002;22.014;2023-12-20T03:03:52;98603.15;;;4.68;61.98
65010;BME280;51556;50.002;22.014;2023-12-20T03:06:18;98601.96;;;4.66;61.63
65010;BME280;51556;50.002;22.014;2023-12-20T03:08:44;98595.38;;;4.63;61.72
65010;BME280;51556;50.002;22.014;2023-12-20T03:11:10;98592.29;;;4.59;61.99
65010;BME280;51556;50.002;22.014;2023-12-20T03:13:36;98592.49;;;4.57;62.43
65010;BME280;51556;50.002;22.014;2023-12-20T03:16:01;98591.65;;;4.55;61.97
65010;BME280;51556;50.002;22.014;2023-12-20T03:18:32;98589.61;;;4.51;62.38
65010;BME280;51556;50.002;22.014;2023-12-20T03:20:58;98592.02;;;4.53;62.06
65010;BME280;51556;50.002;22.014;2023-12-20T03:23:23;98590.91;;;4.58;62.09
65010;BME280;51556;50.002;22.014;2023-12-20T03:25:49;98594.91;;;4.59;61.67
65010;BME280;51556;50.002;22.014;2023-12-20T03:28:15;98596.16;;;4.57;62.09
65010;BME280;51556;50.002;22.014;2023-12-20T03:30:41;98596.17;;;4.56;61.73
65010;BME280;51556;50.002;22.014;2023-12-20T03:33:06;98598.45;;;4.54;61.93
65010;BME280;51556;50.002;22.014;2023-12-20T03:35:32;98600.33;;;4.58;62.13
65010;BME280;51556;50.002;22.014;2023-12-20T03:37:58;98609.91;;;4.58;61.89
65010;BME280;51556;50.002;22.014;2023-12-20T03:40:25;98609.11;;;4.53;61.86
65010;BME280;51556;50.002;22.014;2023-12-20T03:42:50;98610.25;;;4.46;61.91
65010;BME280;51556;50.002;22.014;2023-12-20T03:45:16;98610.30;;;4.43;62.06
65010;BME280;51556;50.002;22.014;2023-12-20T03:47:41;98617.65;;;4.40;61.76
65010;BME280;51556;50.002;22.014;2023-12-20T03:50:07;98612.16;;;4.33;61.92
65010;BME280;51556;50.002;22.014;2023-12-20T03:52:32;98609.45;;;4.28;62.15
65010;BME280;51556;50.002;22.014;2023-12-20T03:54:58;98606.83;;;4.28;62.23
65010;BME280;51556;50.002;22.014;2023-12-20T03:57:23;98600.20;;;4.28;62.21
65010;BME280;51556;50.002;22.014;2023-12-20T03:59:49;98601.48;;;4.22;62.10
65010;BME280;51556;50.002;22.014;2023-12-20T04:02:14;98595.80;;;4.19;62.45
65010;BME280;51556;50.002;22.014;2023-12-20T04:04:39;98594.42;;;4.16;62.01
65010;BME280;51556;50.002;22.014;2023-12-20T04:07:05;98592.84;;;4.18;62.35
65010;BME280;51556;50.002;22.014;2023-12-20T04:09:30;98595.06;;;4.21;61.91
65010;BME280;51556;50.002;22.014;2023-12-20T04:11:55;98601.32;;;4.23;62.51
65010;BME280;51556;50.002;22.014;2023-12-20T04:14:21;98598.86;;;4.24;62.46
65010;BME280;51556;50.002;22.014;2023-12-20T04:16:46;98598.34;;;4.24;61.86
65010;BME280;51556;50.002;22.014;2023-12-20T04:19:12;98604.10;;;4.23;62.18
65010;BME280;51556;50.002;22.014;2023-12-20T04:21:37;98599.23;;;4.22;62.21
65010;BME280;51556;50.002;22.014;2023-12-20T04:24:02;98592.29;;;4.20;62.18
65010;BME280;51556;50.002;22.014;2023-12-20T04:26:28;98594.60;;;4.16;62.02
65010;BME280;51556;50.002;22.014;2023-12-20T04:28:54;98600.92;;;4.12;61.96
65010;BME280;51556;50.002;22.014;2023-12-20T04:31:20;98599.68;;;4.13;61.85
65010;BME280;51556;50.002;22.014;2023-12-20T04:33:45;98597.80;;;4.11;62.27
65010;BME280;51556;50.002;22.014;2023-12-20T04:36:10;98597.84;;;4.08;62.56
65010;BME280;51556;50.002;22.014;2023-12-20T04:38:36;98603.02;;;4.10;62.50
65010;BME280;51556;50.002;22.014;2023-12-20T04:41:01;98598.56;;;4.07;62.55
65010;BME280;51556;50.002;22.014;2023-12-20T04:43:27;98596.67;;;4.05;62.60
65010;BME280;51556;50.002;22.014;2023-12-20T04:45:53;98595.45;;;4.05;62.27
65010;BME280;51556;50.002;22.014;2023-12-20T04:48:18;98589.71;;;4.04;62.46
65010;BME280;51556;50.002;22.014;2023-12-20T04:50:44;98586.59;;;4.02;62.58
65010;BME280;51556;50.002;22.014;2023-12-20T04:53:09;98581.02;;;4.02;62.67
65010;BME280;51556;50.002;22.014;2023-12-20T04:55:35;98577.78;;;4.10;62.97
65010;BME280;51556;50.002;22.014;2023-12-20T04:58:01;98579.93;;;4.19;63.23
65010;BME280;51556;50.002;22.014;2023-12-20T05:00:27;98578.29;;;4.25;62.90
65010;BME280;51556;50.002;22.014;2023-12-20T05:02:52;98584.57;;;4.25;62.76
65010;BME280;51556;50.002;22.014;2023-12-20T05:05:18;98579.92;;;4.20;62.25
65010;BME280;51556;50.002;22.014;2023-12-20T05:07:43;98578.27;;;4.13;62.85
65010;BME280;51556;50.002;22.014;2023-12-20T05:10:09;98577.93;;;4.11;62.91
65010;BME280;51556;50.002;22.014;2023-12-20T05:12:35;98582.09;;;4.13;62.74
65010;BME280;51556;50.002;22.014;2023-12-20T05:15:00;98579.89;;;4.10;63.00
65010;BME280;51556;50.002;22.014;2023-12-20T05:17:26;98585.96;;;4.10;62.77
65010;BME280;51556;50.002;22.014;2023-12-20T05:19:51;98583.52;;;4.11;62.95
65010;BME280;51556;50.002;22.014;2023-12-20T05:22:18;98586.45;;;4.13;63.10
65010;BME280;51556;50.002;22.014;2023-12-20T05:24:44;98575.64;;;4.14;63.00
65010;BME280;51556;50.002;22.014;2023-12-20T05:27:09;98576.16;;;4.15;63.04
65010;BME280;51556;50.002;22.014;2023-12-20T05:29:35;98577.06;;;4.11;62.55
65010;BME280;51556;50.002;22.014;2023-12-20T05:32:00;98576.19;;;4.11;62.91
65010;BME280;51556;50.002;22.014;2023-12-20T05:34:25;98567.46;;;4.13;62.93
65010;BME280;51556;50.002;22.014;2023-12-20T05:36:51;98558.73;;;4.14;62.92
65010;BME280;51556;50.002;22.014;2023-12-20T05:39:16;98563.08;;;4.15;63.21
65010;BME280;51556;50.002;22.014;2023-12-20T05:41:42;98560.83;;;4.14;63.24
65010;BME280;51556;50.002;22.014;2023-12-20T05:44:07;98561.52;;;4.14;62.95
65010;BME280;51556;50.002;22.014;2023-12-20T05:46:33;98556.82;;;4.15;63.26
65010;BME280;51556;50.002;22.014;2023-12-20T05:48:58;98556.52;;;4.24;63.24
65010;BME280;51556;50.002;22.014;2023-12-20T05:51:23;98550.73;;;4.28;62.96
65010;BME280;51556;50.002;22.014;2023-12-20T05:53:49;98550.71;;;4.29;63.19
65010;BME280;51556;50.002;22.014;2023-12-20T05:56:15;98549.49;;;4.30;62.89
65010;BME280;51556;50.002;22.014;2023-12-20T05:58:40;98549.89;;;4.25;62.67
65010;BME280;51556;50.002;22.014;2023-12-20T06:01:06;98544.47;;;4.27;63.03
65010;BME280;51556;50.002;22.014;2023-12-20T06:03:33;98543.71;;;4.32;63.18
65010;BME280;51556;50.002;22.014;2023-12-20T06:05:59;98544.54;;;4.36;62.95
65010;BME280;51556;50.002;22.014;2023-12-20T06:08:26;98541.90;;;4.38;62.76
65010;BME280;51556;50.002;22.014;2023-12-20T06:10:51;98540.70;;;4.36;62.19
65010;BME280;51556;50.002;22.014;2023-12-20T06:13:16;98541.52;;;4.40;62.60
65010;BME280;51556;50.002;22.014;2023-12-20T06:15:42;98550.52;;;4.44;62.52
65010;BME280;51556;50.002;22.014;2023-12-20T06:18:07;98548.67;;;4.49;62.27
65010;BME280;51556;50.002;22.014;2023-12-20T06:20:33;98542.88;;;4.53;62.00
65010;BME280;51556;50.002;22.014;2023-12-20T06:22:58;98539.70;;;4.56;62.00
65010;BME280;51556;50.002;22.014;2023-12-20T06:25:24;98537.26;;;4.56;62.07
65010;BME280;51556;50.002;22.014;2023-12-20T06:27:50;98542.48;;;4.56;61.69
65010;BME280;51556;50.002;22.014;2023-12-20T06:30:16;98542.39;;;4.51;61.80
65010;BME280;51556;50.002;22.014;2023-12-20T06:32:42;98546.92;;;4.50;61.41
65010;BME280;51556;50.002;22.014;2023-12-20T06:35:08;98546.97;;;4.47;61.37
65010;BME280;51556;50.002;22.014;2023-12-20T06:37:34;98547.36;;;4.45;61.42
65010;BME280;51556;50.002;22.014;2023-12-20T06:40:00;98546.87;;;4.44;61.33
65010;BME280;51556;50.002;22.014;2023-12-20T06:42:26;98545.98;;;4.44;61.63
65010;BME280;51556;50.002;22.014;2023-12-20T06:44:51;98544.52;;;4.47;61.66
65010;BME280;51556;50.002;22.014;2023-12-20T06:47:16;98539.42;;;4.50;61.54
65010;BME280;51556;50.002;22.014;2023-12-20T06:49:42;98540.44;;;4.53;61.76
65010;BME280;51556;50.002;22.014;2023-12-20T06:52:07;98541.05;;;4.59;61.75
65010;BME280;51556;50.002;22.014;2023-12-20T06:54:33;98541.45;;;4.68;61.77
65010;BME280;51556;50.002;22.014;2023-12-20T06:57:00;98540.98;;;4.76;61.39
65010;BME280;51556;50.002;22.014;2023-12-20T06:59:25;98537.08;;;4.81;61.38
65010;BME280;51556;50.002;22.014;2023-12-20T07:01:51;98534.34;;;4.87;61.12
65010;BME280;51556;50.002;22.014;2023-12-20T07:04:17;98546.61;;;4.94;61.31
65010;BME280;51556;50.002;22.014;2023-12-20T07:06:47;98552.50;;;4.97;60.92
65010;BME280;51556;50.002;22.014;2023-12-20T07:09:13;98553.66;;;5.00;60.83
65010;BME280;51556;50.002;22.014;2023-12-20T07:11:39;98557.65;;;5.02;60.82
65010;BME280;51556;50.002;22.014;2023-12-20T07:14:04;98560.75;;;5.05;60.59
65010;BME280;51556;50.002;22.014;2023-12-20T07:16:29;98561.66;;;5.02;60.64
65010;BME280;51556;50.002;22.014;2023-12-20T07:18:55;98559.27;;;4.99;60.26
65010;BME280;51556;50.002;22.014;2023-12-20T07:21:21;98552.98;;;4.99;60.45
65010;BME280;51556;50.002;22.014;2023-12-20T07:23:47;98554.80;;;5.06;60.63
65010;BME280;51556;50.002;22.014;2023-12-20T07:26:12;98566.11;;;5.08;60.38
65010;BME280;51556;50.002;22.014;2023-12-20T07:28:37;98565.59;;;5.07;60.32
65010;BME280;51556;50.002;22.014;2023-12-20T07:31:03;98571.02;;;5.06;60.40
65010;BME280;51556;50.002;22.014;2023-12-20T07:33:28;98573.30;;;5.05;60.21
65010;BME280;51556;50.002;22.014;2023-12-20T07:35:54;98576.11;;;5.03;60.43
65010;BME280;51556;50.002;22.014;2023-12-20T07:38:19;98577.88;;;5.02;60.44
65010;BME280;51556;50.002;22.014;2023-12-20T07:40:44;98574.42;;;5.01;60.10
65010;BME280;51556;50.002;22.014;2023-12-20T07:43:10;98572.02;;;4.97;60.36
65010;BME280;51556;50.002;22.014;2023-12-20T07:45:35;98567.73;;;4.93;60.38
65010;BME280;51556;50.002;22.014;2023-12-20T07:48:01;98572.10;;;4.92;60.35
65010;BME280;51556;50.002;22.014;2023-12-20T07:50:26;98573.29;;;4.94;60.69
65010;BME280;51556;50.002;22.014;2023-12-20T07:52:52;98570.66;;;4.96;60.62
65010;BME280;51556;50.002;22.014;2023-12-20T07:55:18;98575.85;;;4.98;60.27
65010;BME280;51556;50.002;22.014;2023-12-20T07:57:43;98570.77;;;4.99;60.46
65010;BME280;51556;50.002;22.014;2023-12-20T08:00:09;98570.20;;;5.02;60.50
65010;BME280;51556;50.002;22.014;2023-12-20T08:02:35;98568.93;;;5.06;60.50
65010;BME280;51556;50.002;22.014;2023-12-20T08:05:00;98564.84;;;5.11;60.67
65010;BME280;51556;50.002;22.014;2023-12-20T08:07:26;98578.00;;;5.17;60.53
65010;BME280;51556;50.002;22.014;2023-12-20T08:09:51;98578.42;;;5.21;60.83
65010;BME280;51556;50.002;22.014;2023-12-20T08:12:18;98565.43;;;5.27;60.58
65010;BME280;51556;50.002;22.014;2023-12-20T08:14:43;98548.64;;;5.29;60.57
65010;BME280;51556;50.002;22.014;2023-12-20T08:17:08;98540.27;;;5.28;60.68
65010;BME280;51556;50.002;22.014;2023-12-20T08:19:34;98546.33;;;5.31;60.84
65010;BME280;51556;50.002;22.014;2023-12-20T08:21:59;98555.89;;;5.33;60.69
65010;BME280;51556;50.002;22.014;2023-12-20T08:24:24;98555.52;;;5.34;60.44
65010;BME280;51556;50.002;22.014;2023-12-20T08:26:50;98556.92;;;5.34;60.51
65010;BME280;51556;50.002;22.014;2023-12-20T08:29:15;98560.98;;;5.31;60.36
65010;BME280;51556;50.002;22.014;2023-12-20T08:31:41;98549.85;;;5.30;60.53
65010;BME280;51556;50.002;22.014;2023-12-20T08:34:06;98543.44;;;5.27;60.35
65010;BME280;51556;50.002;22.014;2023-12-20T08:36:31;98549.04;;;5.26;60.69
65010;BME280;51556;50.002;22.014;2023-12-20T08:38:57;98552.02;;;5.24;60.85
65010;BME280;51556;50.002;22.014;2023-12-20T08:41:22;98555.52;;;5.24;60.83
65010;BME280;51556;50.002;22.014;2023-12-20T08:43:47;98553.44;;;5.24;60.91
65010;BME280;51556;50.002;22.014;2023-12-20T08:46:14;98545.42;;;5.23;61.15
65010;BME280;51556;50.002;22.014;2023-12-20T08:48:40;98541.08;;;5.22;61.17
65010;BME280;51556;50.002;22.014;2023-12-20T08:51:05;98542.80;;;5.23;61.20
65010;BME280;51556;50.002;22.014;2023-12-20T08:53:34;98544.16;;;5.26;61.10
65010;BME280;51556;50.002;22.014;2023-12-20T08:56:00;98550.88;;;5.21;60.69
65010;BME280;51556;50.002;22.014;2023-12-20T08:58:27;98545.70;;;5.18;61.04
65010;BME280;51556;50.002;22.014;2023-12-20T09:00:53;98549.19;;;5.19;60.70
65010;BME280;51556;50.002;22.014;2023-12-20T09:03:18;98542.38;;;5.18;60.83
65010;BME280;51556;50.002;22.014;2023-12-20T09:05:44;98547.65;;;5.17;60.89
65010;BME280;51556;50.002;22.014;2023-12-20T09:08:09;98542.98;;;5.15;61.17
65010;BME280;51556;50.002;22.014;2023-12-20T09:10:37;98546.25;;;5.17;61.06
65010;BME280;51556;50.002;22.014;2023-12-20T09:13:02;98540.16;;;5.16;60.84
65010;BME280;51556;50.002;22.014;2023-12-20T09:15:28;98537.91;;;5.15;61.04
65010;BME280;51556;50.002;22.014;2023-12-20T09:17:55;98533.82;;;5.09;60.96
65010;BME280;51556;50.002;22.014;2023-12-20T09:20:20;98528.61;;;5.07;61.31
65010;BME280;51556;50.002;22.014;2023-12-20T09:22:46;98524.02;;;5.11;61.83
65010;BME280;51556;50.002;22.014;2023-12-20T09:25:12;98524.23;;;5.08;61.41
65010;BME280;51556;50.002;22.014;2023-12-20T09:27:39;98525.80;;;5.09;61.34
65010;BME280;51556;50.002;22.014;2023-12-20T09:30:05;98526.58;;;5.03;61.43
65010;BME280;51556;50.002;22.014;2023-12-20T09:32:31;98522.52;;;4.95;61.39
65010;BME280;51556;50.002;22.014;2023-12-20T09:34:56;98522.16;;;4.96;61.95
65010;BME280;51556;50.002;22.014;2023-12-20T09:37:25;98518.25;;;4.90;61.84
65010;BME280;51556;50.002;22.014;2023-12-20T09:39:51;98511.54;;;4.85;62.42
65010;BME280;51556;50.002;22.014;2023-12-20T09:42:23;98509.98;;;4.84;62.34
65010;BME280;51556;50.002;22.014;2023-12-20T09:44:49;98509.17;;;4.81;62.17
65010;BME280;51556;50.002;22.014;2023-12-20T09:47:15;98511.06;;;4.82;62.25
65010;BME280;51556;50.002;22.014;2023-12-20T09:49:45;98513.80;;;4.84;62.55
65010;BME280;51556;50.002;22.014;2023-12-20T09:52:13;98517.13;;;4.84;62.49
65010;BME280;51556;50.002;22.014;2023-12-20T09:54:39;98514.66;;;4.85;62.19
65010;BME280;51556;50.002;22.014;2023-12-20T09:57:06;98515.48;;;4.88;62.48
65010;BME280;51556;50.002;22.014;2023-12-20T09:59:31;98508.89;;;4.86;62.35
65010;BME280;51556;50.002;22.014;2023-12-20T10:01:57;98503.65;;;4.86;62.42
65010;BME280;51556;50.002;22.014;2023-12-20T10:04:23;98500.89;;;4.84;62.57
65010;BME280;51556;50.002;22.014;2023-12-20T10:06:48;98498.97;;;4.85;62.61
65010;BME280;51556;50.002;22.014;2023-12-20T10:09:14;98498.73;;;4.89;62.31
65010;BME280;51556;50.002;22.014;2023-12-20T10:11:39;98496.83;;;4.88;62.19
65010;BME280;51556;50.002;22.014;2023-12-20T10:14:08;98492.69;;;4.85;62.27
65010;BME280;51556;50.002;22.014;2023-12-20T10:16:33;98498.39;;;4.89;62.43
65010;BME280;51556;50.002;22.014;2023-12-20T10:19:00;98496.77;;;4.92;62.30
65010;BME280;51556;50.002;22.014;2023-12-20T10:21:26;98498.97;;;4.96;62.20
65010;BME280;51556;50.002;22.014;2023-12-20T10:23:53;98493.84;;;5.00;62.20
65010;BME280;51556;50.002;22.014;2023-12-20T10:26:20;98495.70;;;5.04;62.18
65010;BME280;51556;50.002;22.014;2023-12-20T10:29:01;98491.34;;;5.03;61.87
65010;BME280;51556;50.002;22.014;2023-12-20T10:31:31;98489.41;;;5.05;62.08
65010;BME280;51556;50.002;22.014;2023-12-20T10:33:58;98479.27;;;5.06;61.90
65010;BME280;51556;50.002;22.014;2023-12-20T10:36:28;98489.23;;;5.15;61.85
65010;BME280;51556;50.002;22.014;2023-12-20T10:38:54;98484.38;;;5.22;61.82
65010;BME280;51556;50.002;22.014;2023-12-20T10:41:25;98485.59;;;5.22;62.03
65010;BME280;51556;50.002;22.014;2023-12-20T10:43:55;98489.24;;;5.23;61.82
65010;BME280;51556;50.002;22.014;2023-12-20T10:46:25;98485.91;;;5.23;61.75
65010;BME280;51556;50.002;22.014;2023-12-20T10:48:53;98478.44;;;5.22;61.95
65010;BME280;51556;50.002;22.014;2023-12-20T10:51:20;98481.20;;;5.24;62.34
65010;BME280;51556;50.002;22.014;2023-12-20T10:53:50;98482.55;;;5.26;62.60
65010;BME280;51556;50.002;22.014;2023-12-20T10:56:17;98476.77;;;5.27;62.76
65010;BME280;51556;50.002;22.014;2023-12-20T10:58:47;98477.69;;;5.25;63.25
65010;BME280;51556;50.002;22.014;2023-12-20T11:01:16;98477.91;;;5.22;63.35
65010;BME280;51556;50.002;22.014;2023-12-20T11:03:49;98477.70;;;5.24;63.43
65010;BME280;51556;50.002;22.014;2023-12-20T11:14:51;98469.21;;;5.21;63.87
65010;BME280;51556;50.002;22.014;2023-12-20T11:17:18;98462.55;;;5.23;63.48
65010;BME280;51556;50.002;22.014;2023-12-20T11:22:21;98452.68;;;5.19;63.64
65010;BME280;51556;50.002;22.014;2023-12-20T11:24:47;98452.77;;;5.16;63.97
65010;BME280;51556;50.002;22.014;2023-12-20T11:27:14;98458.81;;;5.09;63.86
65010;BME280;51556;50.002;22.014;2023-12-20T11:29:40;98454.02;;;5.03;64.45
65010;BME280;51556;50.002;22.014;2023-12-20T11:37:40;98448.74;;;4.95;65.14
65010;BME280;51556;50.002;22.014;2023-12-20T11:40:11;98442.20;;;4.91;65.20
65010;BME280;51556;50.002;22.014;2023-12-20T11:42:44;98438.80;;;4.86;65.71
65010;BME280;51556;50.002;22.014;2023-12-20T11:45:11;98433.48;;;4.82;66.02
65010;BME280;51556;50.002;22.014;2023-12-20T11:47:40;98435.02;;;4.73;66.66
65010;BME280;51556;50.002;22.014;2023-12-20T11:50:06;98435.96;;;4.69;66.81
65010;BME280;51556;50.002;22.014;2023-12-20T11:52:31;98433.50;;;4.70;66.99
65010;BME280;51556;50.002;22.014;2023-12-20T11:54:57;98427.77;;;4.80;68.59
65010;BME280;51556;50.002;22.014;2023-12-20T11:57:22;98432.94;;;4.83;67.82
65010;BME280;51556;50.002;22.014;2023-12-20T11:59:48;98430.42;;;4.77;67.92
65010;BME280;51556;50.002;22.014;2023-12-20T12:02:13;98427.27;;;4.79;67.30
65010;BME280;51556;50.002;22.014;2023-12-20T12:04:41;98431.34;;;4.84;67.43
65010;BME280;51556;50.002;22.014;2023-12-20T12:07:07;98427.59;;;4.79;66.97
65010;BME280;51556;50.002;22.014;2023-12-20T12:09:32;98428.60;;;4.72;67.50
65010;BME280;51556;50.002;22.014;2023-12-20T12:11:58;98424.84;;;4.67;67.16
65010;BME280;51556;50.002;22.014;2023-12-20T12:14:24;98426.70;;;4.59;67.88
65010;BME280;51556;50.002;22.014;2023-12-20T12:16:50;98424.95;;;4.49;68.55
65010;BME280;51556;50.002;22.014;2023-12-20T12:19:24;98427.27;;;4.46;68.90
65010;BME280;51556;50.002;22.014;2023-12-20T12:21:50;98429.30;;;4.40;68.88
65010;BME280;51556;50.002;22.014;2023-12-20T12:24:20;98424.13;;;4.37;69.26
65010;BME280;51556;50.002;22.014;2023-12-20T12:26:52;98424.89;;;4.33;69.19
65010;BME280;51556;50.002;22.014;2023-12-20T12:29:17;98426.11;;;4.32;69.15
65010;BME280;51556;50.002;22.014;2023-12-20T12:31:43;98421.76;;;4.32;69.69
65010;BME280;51556;50.002;22.014;2023-12-20T12:34:08;98424.38;;;4.31;69.77
65010;BME280;51556;50.002;22.014;2023-12-20T12:36:34;98419.48;;;4.32;70.06
65010;BME280;51556;50.002;22.014;2023-12-20T12:39:02;98415.02;;;4.28;70.07
65010;BME280;51556;50.002;22.014;2023-12-20T12:41:30;98413.46;;;4.27;70.49
65010;BME280;51556;50.002;22.014;2023-12-20T12:43:55;98411.37;;;4.28;70.27
65010;BME280;51556;50.002;22.014;2023-12-20T12:46:21;98415.13;;;4.32;69.93
65010;BME280;51556;50.002;22.014;2023-12-20T12:48:47;98416.67;;;4.34;70.74
65010;BME280;51556;50.002;22.014;2023-12-20T12:51:12;98416.69;;;4.33;70.56
65010;BME280;51556;50.002;22.014;2023-12-20T12:53:39;98410.98;;;4.29;71.03
65010;BME280;51556;50.002;22.014;2023-12-20T12:56:05;98414.80;;;4.31;70.92
65010;BME280;51556;50.002;22.014;2023-12-20T12:58:32;98417.64;;;4.27;71.24
65010;BME280;51556;50.002;22.014;2023-12-20T13:00:57;98419.69;;;4.30;71.36
65010;BME280;51556;50.002;22.014;2023-12-20T13:03:23;98420.39;;;4.30;71.25
65010;BME280;51556;50.002;22.014;2023-12-20T13:05:49;98423.83;;;4.21;71.57
65010;BME280;51556;50.002;22.014;2023-12-20T13:08:15;98422.50;;;4.17;71.73
65010;BME280;51556;50.002;22.014;2023-12-20T13:10:41;98420.09;;;4.15;71.93